Time;durP1;ratioP1;P1;durP2;ratioP2;P2;SDS_P1;SDS_P2;PMS_P1;PMS_P2;Temp;Humidity;BMP_temperature;BMP_pressure;BME280_temperature;BME280_humidity;BME280_pressure;Samples;Min_cycle;Max_cycle;Signal;HPM_P1;HPM_P2
2024/03/01 00:01:08;;;;;;;28.13;17.60;;;;;;;;;;5013342;28;20030;-49
2024/03/01 00:03:34;;;;;;;28.63;17.98;;;;;;;;;;5012660;28;20064;-50
2024/03/01 00:06:00;;;;;;;27.38;18.60;;;;;;;;;;5014341;28;20476;-52
2024/03/01 00:08:25;;;;;;;21.75;17.70;;;;;;;;;;5014667;28;20129;-52
2024/03/01 00:10:51;;;;;;;23.67;19.27;;;;;;;;;;5014691;28;20358;-51
2024/03/01 00:13:17;;;;;;;25.20;18.52;;;;;;;;;;5013105;28;20037;-53
2024/03/01 00:15:43;;;;;;;24.95;17.73;;;;;;;;;;5014617;28;20025;-51
2024/03/01 00:18:09;;;;;;;25.33;18.63;;;;;;;;;;5012879;28;20550;-51
2024/03/01 00:20:35;;;;;;;23.67;17.33;;;;;;;;;;5014350;28;20064;-50
2024/03/01 00:23:01;;;;;;;21.95;17.45;;;;;;;;;;5014625;28;20064;-53
2024/03/01 00:37:42;;;;;;;25.42;18.23;;;;;;;;;;4998652;28;20518;-55
2024/03/01 00:40:08;;;;;;;26.50;20.00;;;;;;;;;;5013847;28;20061;-52
2024/03/01 00:42:34;;;;;;;23.92;18.83;;;;;;;;;;5013865;28;20046;-53
2024/03/01 00:45:00;;;;;;;26.73;18.83;;;;;;;;;;5013931;28;20029;-51
2024/03/01 00:47:26;;;;;;;24.25;17.45;;;;;;;;;;5013919;28;20130;-53
2024/03/01 00:49:53;;;;;;;23.02;16.88;;;;;;;;;;5014220;28;20025;-53
2024/03/01 00:52:19;;;;;;;23.67;16.40;;;;;;;;;;5013970;28;20064;-49
2024/03/01 00:54:45;;;;;;;19.52;14.80;;;;;;;;;;5014164;28;20491;-50
2024/03/01 00:57:11;;;;;;;20.40;15.77;;;;;;;;;;5013674;28;20022;-51
2024/03/01 00:59:37;;;;;;;21.75;15.65;;;;;;;;;;5012437;28;20174;-51
2024/03/01 01:02:05;;;;;;;20.85;15.20;;;;;;;;;;5013690;28;20071;-53
2024/03/01 01:04:31;;;;;;;20.77;15.45;;;;;;;;;;5013441;28;20116;-54
2024/03/01 01:06:57;;;;;;;22.10;13.93;;;;;;;;;;5004746;28;20460;-53
2024/03/01 01:09:23;;;;;;;17.55;14.70;;;;;;;;;;5014040;28;20026;-48
2024/03/01 01:11:49;;;;;;;21.88;16.05;;;;;;;;;;5013291;28;20088;-50
2024/03/01 01:14:20;;;;;;;19.27;13.80;;;;;;;;;;5013745;28;20018;-53
2024/03/01 01:16:46;;;;;;;19.17;12.60;;;;;;;;;;5013738;28;20172;-52
2024/03/01 01:19:12;;;;;;;17.95;12.32;;;;;;;;;;5013544;28;20108;-50
2024/03/01 01:21:38;;;;;;;17.70;10.82;;;;;;;;;;5013368;28;20460;-50
2024/03/01 01:24:04;;;;;;;20.15;11.60;;;;;;;;;;5013255;28;20034;-49
2024/03/01 01:26:30;;;;;;;15.55;10.68;;;;;;;;;;5011905;28;20037;-49
2024/03/01 01:28:56;;;;;;;14.63;10.68;;;;;;;;;;5013305;28;20034;-51
2024/03/01 01:31:25;;;;;;;20.77;10.30;;;;;;;;;;5012121;28;20026;-49
2024/03/01 01:33:51;;;;;;;14.32;9.68;;;;;;;;;;5000132;28;20443;-49
2024/03/01 01:36:17;;;;;;;14.55;9.35;;;;;;;;;;5013264;28;20161;-51
2024/03/01 01:38:43;;;;;;;17.13;10.20;;;;;;;;;;5013205;28;20053;-55
2024/03/01 01:41:09;;;;;;;14.15;8.75;;;;;;;;;;5013074;28;20502;-51
2024/03/01 01:43:37;;;;;;;13.20;7.88;;;;;;;;;;5012881;28;20097;-49
2024/03/01 01:46:04;;;;;;;13.93;8.95;;;;;;;;;;5012950;28;20072;-49
2024/03/01 01:48:30;;;;;;;13.40;7.50;;;;;;;;;;5012663;28;20498;-49
2024/03/01 01:50:57;;;;;;;14.55;7.78;;;;;;;;;;5012915;28;20037;-50
2024/03/01 01:53:23;;;;;;;17.83;9.93;;;;;;;;;;5012892;28;20084;-49
2024/03/01 01:55:49;;;;;;;15.27;7.97;;;;;;;;;;5005356;28;20018;-51
2024/03/01 01:58:15;;;;;;;14.30;7.88;;;;;;;;;;5012845;28;20033;-49
2024/03/01 02:00:41;;;;;;;12.82;6.97;;;;;;;;;;5011448;28;20034;-49
2024/03/01 02:03:07;;;;;;;11.55;6.70;;;;;;;;;;5008657;28;20479;-51
2024/03/01 02:05:33;;;;;;;11.25;6.32;;;;;;;;;;5002269;28;20048;-50
2024/03/01 02:07:59;;;;;;;14.80;6.32;;;;;;;;;;4994326;28;20520;-51
2024/03/01 02:10:26;;;;;;;15.48;6.60;;;;;;;;;;5007483;28;20054;-49
2024/03/01 02:13:00;;;;;;;12.45;6.68;;;;;;;;;;5011800;28;20140;-50
2024/03/01 02:15:26;;;;;;;17.13;6.70;;;;;;;;;;5010717;28;20014;-49
2024/03/01 02:17:52;;;;;;;9.60;6.70;;;;;;;;;;5011508;28;20025;-52
2024/03/01 02:20:20;;;;;;;10.45;6.00;;;;;;;;;;5010359;28;20052;-49
2024/03/01 02:22:52;;;;;;;11.63;6.25;;;;;;;;;;5011771;28;20450;-50
2024/03/01 02:25:18;;;;;;;16.20;7.50;;;;;;;;;;5012018;28;20055;-49
2024/03/01 02:27:45;;;;;;;16.17;7.20;;;;;;;;;;5011894;28;20061;-50
2024/03/01 02:30:11;;;;;;;11.88;6.63;;;;;;;;;;5011221;28;20018;-50
2024/03/01 02:32:37;;;;;;;11.05;7.03;;;;;;;;;;5010545;28;20391;-49
2024/03/01 02:35:03;;;;;;;13.75;6.72;;;;;;;;;;5008209;28;20036;-53
2024/03/01 02:37:29;;;;;;;13.13;7.50;;;;;;;;;;5007817;28;20598;-53
2024/03/01 02:39:55;;;;;;;13.23;7.50;;;;;;;;;;5003539;28;20046;-51
2024/03/01 02:42:21;;;;;;;13.43;6.88;;;;;;;;;;5006068;28;20375;-51
2024/03/01 02:44:47;;;;;;;15.48;6.90;;;;;;;;;;5006162;28;20048;-52
2024/03/01 02:47:25;;;;;;;12.48;6.55;;;;;;;;;;5007374;28;20102;-53
2024/03/01 02:49:52;;;;;;;12.98;6.55;;;;;;;;;;5006547;28;20022;-50
2024/03/01 02:52:18;;;;;;;13.52;7.22;;;;;;;;;;5010565;28;20367;-51
2024/03/01 02:54:44;;;;;;;12.10;7.05;;;;;;;;;;5007728;28;20068;-54
2024/03/01 02:57:10;;;;;;;13.75;7.15;;;;;;;;;;5004835;28;20117;-55
2024/03/01 02:59:36;;;;;;;13.48;7.65;;;;;;;;;;5010473;28;20040;-51
2024/03/01 03:05:06;;;;;;;11.65;7.05;;;;;;;;;;4999224;28;20077;-52
2024/03/01 03:07:32;;;;;;;11.25;6.40;;;;;;;;;;5009074;28;20018;-51
2024/03/01 03:09:59;;;;;;;12.20;7.00;;;;;;;;;;5011696;28;20022;-51
2024/03/01 03:12:25;;;;;;;10.55;6.28;;;;;;;;;;5000877;28;20086;-53
2024/03/01 03:14:51;;;;;;;8.65;6.90;;;;;;;;;;5010392;28;20030;-51
2024/03/01 03:17:17;;;;;;;12.35;6.72;;;;;;;;;;5011470;28;20030;-50
2024/03/01 03:19:43;;;;;;;14.50;6.70;;;;;;;;;;5011903;28;20042;-51
2024/03/01 03:22:09;;;;;;;10.13;6.40;;;;;;;;;;5011767;28;20025;-51
2024/03/01 03:24:37;;;;;;;13.35;7.25;;;;;;;;;;5011736;28;20057;-53
2024/03/01 03:27:03;;;;;;;14.48;6.63;;;;;;;;;;5008089;28;20029;-49
2024/03/01 03:29:30;;;;;;;12.80;7.38;;;;;;;;;;5000426;28;20034;-50
2024/03/01 03:31:56;;;;;;;14.35;7.43;;;;;;;;;;5004477;28;20029;-49
2024/03/01 03:34:22;;;;;;;11.10;6.35;;;;;;;;;;5014708;28;20021;-48
2024/03/01 03:36:48;;;;;;;13.15;6.63;;;;;;;;;;5015391;28;20105;-50
2024/03/01 03:39:15;;;;;;;11.07;6.03;;;;;;;;;;5014901;28;20034;-55
2024/03/01 03:41:41;;;;;;;13.43;6.35;;;;;;;;;;5015101;28;20036;-55
2024/03/01 03:44:07;;;;;;;8.30;5.57;;;;;;;;;;5015459;28;20053;-50
2024/03/01 03:46:33;;;;;;;12.75;6.60;;;;;;;;;;5014973;28;20033;-53
2024/03/01 03:48:59;;;;;;;8.65;5.75;;;;;;;;;;5015000;28;20460;-51
2024/03/01 03:51:25;;;;;;;10.70;6.00;;;;;;;;;;5014678;28;20018;-49
2024/03/01 03:53:52;;;;;;;8.82;6.30;;;;;;;;;;5014808;28;20034;-53
2024/03/01 03:56:18;;;;;;;8.93;6.20;;;;;;;;;;5014483;28;20034;-51
2024/03/01 03:58:44;;;;;;;11.05;6.18;;;;;;;;;;5014535;28;20132;-51
2024/03/01 04:01:10;;;;;;;11.40;5.43;;;;;;;;;;5014522;28;20091;-48
2024/03/01 04:03:36;;;;;;;9.02;5.82;;;;;;;;;;5013283;28;20480;-53
2024/03/01 04:06:03;;;;;;;15.90;5.40;;;;;;;;;;5012895;28;20029;-51
2024/03/01 04:08:29;;;;;;;7.97;5.40;;;;;;;;;;5012973;28;20026;-50
2024/03/01 04:10:57;;;;;;;10.90;6.10;;;;;;;;;;5014196;28;20032;-53
2024/03/01 04:13:25;;;;;;;9.60;5.85;;;;;;;;;;5014569;28;20034;-51
2024/03/01 04:15:51;;;;;;;10.63;4.72;;;;;;;;;;5014180;28;20018;-51
2024/03/01 04:18:17;;;;;;;8.57;5.85;;;;;;;;;;5013922;28;20496;-50
2024/03/01 04:20:44;;;;;;;11.30;5.43;;;;;;;;;;5014188;28;20013;-50
2024/03/01 04:23:10;;;;;;;8.70;5.68;;;;;;;;;;5012895;28;20098;-49
2024/03/01 04:25:36;;;;;;;10.93;5.57;;;;;;;;;;5007432;28;20022;-49
2024/03/01 04:28:02;;;;;;;13.20;5.38;;;;;;;;;;5014216;28;20467;-51
2024/03/01 04:30:28;;;;;;;12.88;6.10;;;;;;;;;;5012334;28;20038;-53
2024/03/01 04:32:54;;;;;;;7.63;5.60;;;;;;;;;;5014063;28;20026;-51
2024/03/01 04:35:20;;;;;;;9.43;5.32;;;;;;;;;;5012560;28;20118;-53
2024/03/01 04:37:46;;;;;;;10.57;5.82;;;;;;;;;;5014349;28;20026;-53
2024/03/01 04:40:12;;;;;;;13.23;6.00;;;;;;;;;;5010781;28;20534;-51
2024/03/01 04:42:41;;;;;;;9.30;6.45;;;;;;;;;;5005778;28;20029;-49
2024/03/01 04:45:07;;;;;;;9.02;6.22;;;;;;;;;;5013258;28;20484;-53
2024/03/01 04:47:33;;;;;;;18.58;6.90;;;;;;;;;;5014053;28;20065;-53
2024/03/01 04:50:02;;;;;;;13.00;6.95;;;;;;;;;;5013544;28;20037;-51
2024/03/01 04:52:30;;;;;;;13.38;6.07;;;;;;;;;;5012410;28;20025;-50
2024/03/01 04:54:56;;;;;;;12.82;6.38;;;;;;;;;;5013665;28;20542;-49
2024/03/01 04:57:22;;;;;;;11.02;5.38;;;;;;;;;;5012099;28;20034;-52
2024/03/01 04:59:48;;;;;;;12.88;6.63;;;;;;;;;;5013533;28;20538;-55
2024/03/01 05:02:14;;;;;;;9.10;5.90;;;;;;;;;;5013431;28;20022;-52
2024/03/01 05:04:40;;;;;;;9.70;5.97;;;;;;;;;;5012312;28;20074;-51
2024/03/01 05:07:06;;;;;;;10.32;5.90;;;;;;;;;;5013277;28;20356;-53
2024/03/01 05:09:32;;;;;;;13.98;6.35;;;;;;;;;;5012923;28;20026;-52
2024/03/01 05:11:58;;;;;;;10.15;5.95;;;;;;;;;;5012963;28;20050;-49
2024/03/01 05:14:24;;;;;;;11.75;5.95;;;;;;;;;;5013275;28;20060;-49
2024/03/01 05:16:50;;;;;;;10.80;5.80;;;;;;;;;;5012946;28;20080;-53
2024/03/01 05:19:16;;;;;;;11.38;5.70;;;;;;;;;;5013065;28;20060;-49
2024/03/01 05:21:42;;;;;;;7.75;5.47;;;;;;;;;;5013094;28;20108;-51
2024/03/01 05:24:08;;;;;;;11.23;5.88;;;;;;;;;;5013117;28;20033;-49
2024/03/01 05:26:34;;;;;;;11.10;6.60;;;;;;;;;;5012694;28;20373;-50
2024/03/01 05:29:00;;;;;;;14.52;5.82;;;;;;;;;;5012851;28;20032;-51
2024/03/01 05:31:28;;;;;;;9.88;6.28;;;;;;;;;;5013326;28;20030;-51
2024/03/01 05:33:54;;;;;;;10.85;6.28;;;;;;;;;;5012719;28;20083;-49
2024/03/01 05:36:29;;;;;;;9.40;5.07;;;;;;;;;;5012594;28;20451;-48
2024/03/01 05:38:56;;;;;;;13.68;5.78;;;;;;;;;;5012522;28;20038;-53
2024/03/01 05:41:22;;;;;;;10.20;6.05;;;;;;;;;;5013140;28;20017;-54
2024/03/01 05:43:48;;;;;;;10.50;6.25;;;;;;;;;;5012833;28;20034;-49
2024/03/01 05:49:28;;;;;;;7.38;5.72;;;;;;;;;;5010428;28;20037;-50
2024/03/01 05:51:54;;;;;;;16.13;6.80;;;;;;;;;;4993878;28;20034;-52
2024/03/01 05:54:20;;;;;;;11.68;5.97;;;;;;;;;;5011031;28;20450;-49
2024/03/01 05:56:46;;;;;;;13.63;6.82;;;;;;;;;;5012556;28;20113;-51
2024/03/01 05:59:12;;;;;;;11.23;7.03;;;;;;;;;;5012405;28;20133;-49
2024/03/01 06:01:38;;;;;;;11.00;6.80;;;;;;;;;;5011373;28;20457;-47
2024/03/01 06:04:09;;;;;;;12.32;6.00;;;;;;;;;;5012404;28;20072;-50
2024/03/01 06:06:36;;;;;;;9.60;6.07;;;;;;;;;;5012560;28;20014;-50
2024/03/01 06:09:02;;;;;;;11.23;6.70;;;;;;;;;;5012425;28;20092;-47
2024/03/01 06:11:28;;;;;;;9.70;7.00;;;;;;;;;;5009214;28;20418;-48
2024/03/01 06:13:54;;;;;;;15.35;7.95;;;;;;;;;;5012253;28;20084;-53
2024/03/01 06:19:58;;;;;;;15.10;7.13;;;;;;;;;;5001895;28;20084;-51
2024/03/01 06:22:24;;;;;;;13.63;8.07;;;;;;;;;;4996334;28;20026;-52
2024/03/01 06:24:50;;;;;;;13.65;7.40;;;;;;;;;;5011885;28;20502;-50
2024/03/01 06:27:16;;;;;;;11.98;8.65;;;;;;;;;;5012414;28;20030;-48
2024/03/01 06:29:48;;;;;;;13.13;7.88;;;;;;;;;;5012264;28;20034;-48
2024/03/01 06:38:22;;;;;;;13.23;8.77;;;;;;;;;;5003137;28;20439;-54
2024/03/01 06:40:48;;;;;;;19.42;9.95;;;;;;;;;;5012426;28;20034;-49
2024/03/01 06:43:14;;;;;;;16.80;9.32;;;;;;;;;;5011828;28;20030;-48
2024/03/01 06:45:40;;;;;;;15.15;8.77;;;;;;;;;;5010610;28;20399;-49
2024/03/01 06:48:06;;;;;;;15.93;9.13;;;;;;;;;;5011924;28;20085;-48
2024/03/01 06:50:32;;;;;;;17.35;9.63;;;;;;;;;;5011920;28;20030;-48
2024/03/01 06:52:58;;;;;;;14.88;8.25;;;;;;;;;;5011812;28;20065;-48
2024/03/01 06:55:24;;;;;;;14.95;10.10;;;;;;;;;;5011469;28;20033;-49
2024/03/01 06:57:50;;;;;;;14.57;8.75;;;;;;;;;;5011388;28;20054;-52
2024/03/01 07:00:16;;;;;;;11.45;8.77;;;;;;;;;;5011780;28;20034;-49
2024/03/01 07:02:42;;;;;;;15.45;9.70;;;;;;;;;;5011052;28;20030;-48
2024/03/01 07:05:09;;;;;;;13.45;9.40;;;;;;;;;;5004625;28;20113;-53
2024/03/01 07:07:36;;;;;;;16.05;8.45;;;;;;;;;;5011559;28;20065;-53
2024/03/01 07:10:02;;;;;;;14.27;9.70;;;;;;;;;;5009490;28;20030;-53
2024/03/01 07:12:28;;;;;;;15.88;7.28;;;;;;;;;;5015374;28;20513;-50
2024/03/01 07:14:54;;;;;;;12.70;8.23;;;;;;;;;;5014875;28;20112;-50
2024/03/01 07:17:20;;;;;;;11.80;7.38;;;;;;;;;;4998544;28;20034;-49
2024/03/01 07:19:46;;;;;;;11.35;7.93;;;;;;;;;;5000666;28;20093;-49
2024/03/01 07:22:12;;;;;;;13.90;8.57;;;;;;;;;;5002668;28;20018;-50
2024/03/01 07:24:38;;;;;;;16.85;9.68;;;;;;;;;;5012078;28;20472;-47
2024/03/01 07:27:04;;;;;;;13.10;8.27;;;;;;;;;;5014776;28;20054;-50
2024/03/01 07:29:30;;;;;;;12.98;9.07;;;;;;;;;;5010453;28;20026;-50
2024/03/01 07:31:56;;;;;;;13.70;8.57;;;;;;;;;;5014849;28;20056;-49
2024/03/01 07:34:22;;;;;;;10.48;7.75;;;;;;;;;;5015163;28;20075;-48
2024/03/01 07:36:48;;;;;;;10.30;8.02;;;;;;;;;;5014988;28;20101;-48
2024/03/01 07:39:14;;;;;;;13.85;8.18;;;;;;;;;;5014942;28;20034;-47
2024/03/01 07:41:40;;;;;;;14.23;8.68;;;;;;;;;;5013467;28;20499;-50
2024/03/01 07:44:06;;;;;;;14.68;7.63;;;;;;;;;;5014631;28;20073;-51
2024/03/01 07:46:32;;;;;;;14.63;8.45;;;;;;;;;;5014448;28;20041;-49
2024/03/01 07:48:58;;;;;;;14.05;7.90;;;;;;;;;;5014448;28;20112;-50
2024/03/01 07:51:24;;;;;;;19.35;8.43;;;;;;;;;;5015026;28;20049;-48
2024/03/01 07:53:50;;;;;;;12.75;8.43;;;;;;;;;;5012964;28;20513;-67
2024/03/01 07:56:17;;;;;;;19.27;9.25;;;;;;;;;;5014371;28;20033;-65
2024/03/01 07:58:43;;;;;;;13.30;8.45;;;;;;;;;;5013916;28;20121;-70
2024/03/01 08:01:09;;;;;;;10.38;7.45;;;;;;;;;;5012482;28;20030;-70
2024/03/01 08:03:35;;;;;;;17.75;9.23;;;;;;;;;;5012861;28;20026;-70
2024/03/01 08:06:01;;;;;;;15.80;9.40;;;;;;;;;;5014084;28;20036;-70
2024/03/01 08:08:36;;;;;;;19.83;9.52;;;;;;;;;;5013565;28;20475;-72
2024/03/01 08:11:03;;;;;;;22.02;10.35;;;;;;;;;;5012355;28;20022;-72
2024/03/01 08:13:29;;;;;;;17.13;7.97;;;;;;;;;;5014680;28;20026;-67
2024/03/01 08:15:57;;;;;;;14.90;8.82;;;;;;;;;;5012484;28;20182;-64
2024/03/01 08:18:24;;;;;;;16.38;8.82;;;;;;;;;;5014409;28;20044;-68
2024/03/01 08:20:55;;;;;;;17.80;8.90;;;;;;;;;;5014592;28;20022;-66
2024/03/01 08:23:21;;;;;;;13.32;7.70;;;;;;;;;;5014229;28;20106;-70
2024/03/01 08:25:48;;;;;;;14.27;7.22;;;;;;;;;;5014116;28;20029;-64
2024/03/01 08:28:18;;;;;;;15.45;7.40;;;;;;;;;;5014197;28;20443;-64
2024/03/01 08:30:44;;;;;;;20.98;7.68;;;;;;;;;;5013826;28;20025;-63
2024/03/01 08:33:13;;;;;;;13.63;8.20;;;;;;;;;;5010842;28;20037;-61
2024/03/01 08:35:41;;;;;;;12.35;7.15;;;;;;;;;;5013744;28;20033;-69
2024/03/01 08:38:27;;;;;;;10.32;6.88;;;;;;;;;;5012641;28;20088;-66
2024/03/01 08:40:56;;;;;;;16.60;6.70;;;;;;;;;;5013547;28;20033;-63
2024/03/01 08:43:23;;;;;;;16.55;6.35;;;;;;;;;;5013300;28;20042;-69
2024/03/01 08:45:49;;;;;;;13.38;6.60;;;;;;;;;;5013551;28;20034;-63
2024/03/01 08:48:24;;;;;;;12.68;6.18;;;;;;;;;;5012066;28;20455;-62
2024/03/01 08:50:51;;;;;;;8.98;6.25;;;;;;;;;;5013334;28;20033;-67
2024/03/01 08:53:36;;;;;;;11.75;5.38;;;;;;;;;;5013231;28;20026;-67
2024/03/01 08:56:01;;;;;;;11.45;5.13;;;;;;;;;;5013288;28;20034;-70
2024/03/01 08:58:27;;;;;;;10.55;6.07;;;;;;;;;;5013422;28;20040;-65
2024/03/01 09:00:55;;;;;;;10.63;6.28;;;;;;;;;;5012219;28;20018;-64
2024/03/01 09:03:25;;;;;;;14.07;5.63;;;;;;;;;;5013666;28;20041;-71
2024/03/01 09:05:55;;;;;;;13.82;5.65;;;;;;;;;;5013184;28;20018;-66
2024/03/01 09:08:36;;;;;;;9.80;5.55;;;;;;;;;;5013267;28;20030;-64
2024/03/01 09:11:02;;;;;;;6.93;5.20;;;;;;;;;;5001632;28;20115;-62
2024/03/01 09:13:31;;;;;;;10.85;5.40;;;;;;;;;;5013809;28;20029;-62
2024/03/01 09:15:57;;;;;;;8.25;3.92;;;;;;;;;;5013983;28;20024;-62
2024/03/01 09:18:23;;;;;;;10.60;4.07;;;;;;;;;;5013792;28;20034;-62
2024/03/01 09:20:49;;;;;;;9.63;4.97;;;;;;;;;;5013243;28;20075;-62
2024/03/01 09:23:15;;;;;;;7.63;5.63;;;;;;;;;;5013314;28;20084;-62
2024/03/01 09:25:41;;;;;;;8.18;5.30;;;;;;;;;;5013659;28;20038;-65
2024/03/01 09:28:08;;;;;;;8.88;4.57;;;;;;;;;;5012304;28;20025;-67
2024/03/01 09:30:35;;;;;;;6.25;4.20;;;;;;;;;;5013286;28;20033;-65
2024/03/01 09:33:01;;;;;;;7.75;4.28;;;;;;;;;;5012051;28;20492;-64
2024/03/01 09:35:27;;;;;;;9.98;5.55;;;;;;;;;;5012168;28;20025;-60
2024/03/01 09:37:53;;;;;;;9.13;5.50;;;;;;;;;;5012736;28;20049;-58
2024/03/01 09:40:31;;;;;;;9.48;5.03;;;;;;;;;;5012095;28;20034;-60
2024/03/01 09:43:06;;;;;;;9.55;4.93;;;;;;;;;;5012680;28;20036;-62
2024/03/01 09:45:40;;;;;;;8.65;5.65;;;;;;;;;;5012820;28;20043;-62
2024/03/01 09:48:06;;;;;;;7.40;4.97;;;;;;;;;;5013297;28;20026;-62
2024/03/01 09:50:52;;;;;;;11.18;4.93;;;;;;;;;;5013251;28;20022;-62
2024/03/01 09:53:38;;;;;;;12.80;5.05;;;;;;;;;;5011425;28;20033;-63
2024/03/01 09:56:24;;;;;;;8.25;5.25;;;;;;;;;;5011743;28;20040;-63
2024/03/01 09:58:59;;;;;;;10.25;5.75;;;;;;;;;;5012233;28;20040;-63
2024/03/01 10:01:36;;;;;;;9.85;5.43;;;;;;;;;;5013050;28;20022;-63
2024/03/01 10:04:05;;;;;;;9.48;4.70;;;;;;;;;;4999080;28;20119;-63
2024/03/01 10:06:37;;;;;;;8.98;6.28;;;;;;;;;;5008028;28;20484;-63
2024/03/01 10:09:11;;;;;;;10.35;5.38;;;;;;;;;;5012109;28;20022;-63
2024/03/01 10:11:58;;;;;;;7.47;5.72;;;;;;;;;;5012583;28;20042;-63
2024/03/01 10:14:24;;;;;;;9.90;6.13;;;;;;;;;;4998776;28;20033;-63
2024/03/01 10:17:11;;;;;;;10.40;6.68;;;;;;;;;;4993257;28;20030;-63
2024/03/01 10:19:49;;;;;;;10.70;5.78;;;;;;;;;;5025936;28;20526;-63
2024/03/01 10:22:33;;;;;;;8.85;5.03;;;;;;;;;;5012751;28;20049;-63
2024/03/01 10:25:17;;;;;;;10.15;5.57;;;;;;;;;;4999301;28;20029;-63
2024/03/01 10:27:45;;;;;;;10.30;5.13;;;;;;;;;;5012844;28;20348;-64
2024/03/01 10:30:21;;;;;;;11.18;5.35;;;;;;;;;;5012594;28;20104;-64
2024/03/01 10:33:02;;;;;;;12.05;6.85;;;;;;;;;;4994536;28;20022;-64
2024/03/01 10:35:38;;;;;;;8.77;5.07;;;;;;;;;;5001698;28;20029;-64
2024/03/01 10:38:16;;;;;;;10.98;6.35;;;;;;;;;;5012431;28;20058;-64
2024/03/01 10:41:02;;;;;;;12.27;6.18;;;;;;;;;;5005078;28;20045;-64
2024/03/01 10:43:43;;;;;;;9.70;6.07;;;;;;;;;;5009316;28;20421;-64
2024/03/01 10:46:19;;;;;;;15.02;6.03;;;;;;;;;;5011713;28;20034;-64
2024/03/01 10:48:48;;;;;;;10.07;6.47;;;;;;;;;;5003274;28;20030;-64
2024/03/01 10:51:16;;;;;;;10.93;6.38;;;;;;;;;;5016642;28;20049;-64
2024/03/01 10:53:49;;;;;;;10.57;6.40;;;;;;;;;;5016210;28;20080;-64
2024/03/01 10:56:16;;;;;;;13.53;7.50;;;;;;;;;;5015010;28;20064;-64
2024/03/01 10:58:42;;;;;;;9.65;6.63;;;;;;;;;;5002528;28;20026;-63
2024/03/01 11:01:30;;;;;;;11.32;5.88;;;;;;;;;;5016167;28;20060;-64
2024/03/01 11:04:00;;;;;;;9.27;6.35;;;;;;;;;;5010036;28;20101;-64
2024/03/01 11:06:29;;;;;;;8.90;6.32;;;;;;;;;;5016045;28;20022;-64
2024/03/01 11:08:55;;;;;;;10.45;6.13;;;;;;;;;;5000673;28;20068;-64
2024/03/01 11:11:25;;;;;;;7.68;4.85;;;;;;;;;;5015658;28;20061;-64
2024/03/01 11:13:55;;;;;;;7.32;5.07;;;;;;;;;;5015867;28;20037;-64
2024/03/01 11:16:23;;;;;;;8.10;4.93;;;;;;;;;;5003895;28;20088;-64
2024/03/01 11:18:51;;;;;;;10.02;4.63;;;;;;;;;;5014647;28;20121;-64
2024/03/01 11:21:18;;;;;;;9.48;5.35;;;;;;;;;;5014583;28;20018;-64
2024/03/01 11:24:02;;;;;;;9.50;5.47;;;;;;;;;;5014481;28;20033;-64
2024/03/01 11:26:33;;;;;;;7.10;5.35;;;;;;;;;;5016035;28;20040;-64
2024/03/01 11:29:05;;;;;;;8.93;5.15;;;;;;;;;;5015920;28;20136;-64
2024/03/01 11:31:33;;;;;;;9.10;4.88;;;;;;;;;;5014594;28;20108;-64
2024/03/01 11:34:02;;;;;;;6.50;3.75;;;;;;;;;;5008360;28;20033;-64
2024/03/01 11:36:35;;;;;;;5.28;3.95;;;;;;;;;;5007564;28;20030;-64
2024/03/01 11:39:06;;;;;;;4.63;2.97;;;;;;;;;;5010933;28;20037;-64
2024/03/01 11:41:33;;;;;;;5.75;3.72;;;;;;;;;;5008248;28;20025;-65
2024/03/01 11:44:18;;;;;;;5.07;3.95;;;;;;;;;;5011954;28;20028;-64
2024/03/01 11:47:03;;;;;;;5.30;4.68;;;;;;;;;;5007089;28;20436;-64
2024/03/01 11:49:38;;;;;;;6.15;4.13;;;;;;;;;;5014645;28;20018;-64
2024/03/01 11:52:24;;;;;;;5.35;4.07;;;;;;;;;;4999160;28;20025;-64
2024/03/01 11:55:06;;;;;;;5.70;4.03;;;;;;;;;;5015113;28;20053;-64
2024/03/01 11:57:52;;;;;;;7.05;4.68;;;;;;;;;;5015148;28;20045;-64
2024/03/01 12:00:34;;;;;;;7.28;5.20;;;;;;;;;;5015359;28;20030;-64
2024/03/01 12:03:06;;;;;;;6.53;5.20;;;;;;;;;;5014947;28;20501;-64
2024/03/01 12:06:00;;;;;;;11.63;5.93;;;;;;;;;;5014878;28;20034;-64
2024/03/01 12:08:30;;;;;;;9.88;7.40;;;;;;;;;;5013990;28;20032;-64
2024/03/01 12:11:12;;;;;;;6.40;5.80;;;;;;;;;;5014474;28;20033;-64
2024/03/01 12:13:41;;;;;;;10.90;7.20;;;;;;;;;;5002401;28;20053;-64
2024/03/01 12:16:34;;;;;;;8.70;6.18;;;;;;;;;;5015062;28;20136;-64
2024/03/01 12:19:07;;;;;;;9.15;6.22;;;;;;;;;;5003431;28;20487;-64
2024/03/01 12:21:54;;;;;;;6.60;4.57;;;;;;;;;;5014622;28;20030;-64
2024/03/01 12:24:21;;;;;;;6.45;4.40;;;;;;;;;;5009757;28;20042;-64
2024/03/01 12:27:00;;;;;;;7.60;4.53;;;;;;;;;;5014408;28;20399;-64
2024/03/01 12:29:29;;;;;;;6.68;4.97;;;;;;;;;;5014528;28;20036;-64
2024/03/01 12:32:15;;;;;;;6.88;5.68;;;;;;;;;;5014627;28;20094;-64
2024/03/01 12:34:44;;;;;;;8.60;5.97;;;;;;;;;;5014137;28;20123;-64
2024/03/01 12:37:13;;;;;;;7.47;6.63;;;;;;;;;;5003363;28;20480;-64
2024/03/01 12:39:43;;;;;;;7.63;6.38;;;;;;;;;;5004725;28;20038;-64
2024/03/01 12:42:13;;;;;;;9.82;7.57;;;;;;;;;;4999421;28;20022;-65
2024/03/01 12:44:48;;;;;;;6.70;5.93;;;;;;;;;;5014200;28;20022;-64
2024/03/01 12:47:17;;;;;;;9.63;6.63;;;;;;;;;;5013992;28;20022;-64
2024/03/01 12:49:58;;;;;;;9.52;7.05;;;;;;;;;;5013998;28;20075;-64
2024/03/01 12:52:43;;;;;;;6.25;5.57;;;;;;;;;;5013715;28;20054;-65
2024/03/01 12:55:21;;;;;;;8.25;5.85;;;;;;;;;;5013779;28;20057;-64
2024/03/01 12:58:04;;;;;;;7.72;5.50;;;;;;;;;;5013619;28;20478;-64
2024/03/01 13:00:34;;;;;;;6.72;5.60;;;;;;;;;;5013766;28;20037;-64
2024/03/01 13:03:38;;;;;;;7.05;5.03;;;;;;;;;;5000371;28;20030;-64
2024/03/01 13:06:05;;;;;;;9.73;5.75;;;;;;;;;;4972318;28;20129;-64
2024/03/01 13:08:38;;;;;;;11.35;8.50;;;;;;;;;;4972302;28;20031;-65
2024/03/01 13:11:05;;;;;;;7.53;6.03;;;;;;;;;;4982432;28;20550;-63
2024/03/01 13:13:33;;;;;;;6.88;6.07;;;;;;;;;;5011982;28;20037;-65
2024/03/01 13:16:10;;;;;;;9.77;6.75;;;;;;;;;;5008746;28;20018;-64
2024/03/01 13:18:55;;;;;;;8.15;6.40;;;;;;;;;;5011920;28;20061;-64
2024/03/01 13:21:23;;;;;;;6.60;5.97;;;;;;;;;;5013558;28;20464;-64
2024/03/01 13:23:56;;;;;;;8.25;6.50;;;;;;;;;;5008319;28;20033;-64
2024/03/01 13:26:22;;;;;;;9.93;7.00;;;;;;;;;;5012701;28;20065;-64
2024/03/01 13:28:58;;;;;;;10.55;6.53;;;;;;;;;;5010987;28;20273;-64
2024/03/01 13:31:46;;;;;;;9.32;7.57;;;;;;;;;;5010129;28;20053;-56
2024/03/01 13:34:13;;;;;;;7.80;7.03;;;;;;;;;;5003961;28;20017;-60
2024/03/01 13:36:42;;;;;;;6.65;5.97;;;;;;;;;;5000177;28;20034;-72
2024/03/01 13:39:31;;;;;;;7.28;4.90;;;;;;;;;;5012095;28;20041;-66
2024/03/01 13:42:00;;;;;;;5.82;4.90;;;;;;;;;;5012758;28;20025;-61
2024/03/01 13:44:29;;;;;;;6.60;5.97;;;;;;;;;;5012766;28;20112;-65
2024/03/01 13:47:17;;;;;;;9.35;5.82;;;;;;;;;;5012022;28;20506;-72
2024/03/01 13:49:47;;;;;;;9.70;5.80;;;;;;;;;;5012507;28;20029;-70
2024/03/01 13:52:13;;;;;;;9.48;7.68;;;;;;;;;;5010144;28;20037;-79
2024/03/01 13:54:39;;;;;;;7.63;5.72;;;;;;;;;;5012453;28;20025;-78
2024/03/01 13:57:06;;;;;;;6.78;5.10;;;;;;;;;;5013300;28;20022;-70
2024/03/01 13:59:32;;;;;;;6.65;4.80;;;;;;;;;;5012809;28;20045;-67
2024/03/01 14:01:58;;;;;;;6.18;4.70;;;;;;;;;;5012288;28;20428;-69
2024/03/01 14:04:27;;;;;;;5.10;4.60;;;;;;;;;;5011930;28;20073;-70
2024/03/01 14:06:53;;;;;;;6.10;5.00;;;;;;;;;;5012466;28;20069;-72
2024/03/01 14:09:19;;;;;;;5.63;5.05;;;;;;;;;;5013034;28;20092;-69
2024/03/01 14:11:45;;;;;;;10.32;6.22;;;;;;;;;;5011840;28;20053;-62
2024/03/01 14:14:11;;;;;;;9.13;7.00;;;;;;;;;;5011256;28;20034;-62
2024/03/01 14:16:38;;;;;;;10.52;7.60;;;;;;;;;;5012490;28;20026;-64
2024/03/01 14:19:05;;;;;;;10.55;6.72;;;;;;;;;;5012192;28;20037;-64
2024/03/01 14:21:31;;;;;;;7.35;6.15;;;;;;;;;;5009140;28;20646;-64
2024/03/01 14:24:01;;;;;;;9.38;7.47;;;;;;;;;;5008609;28;20214;-65
2024/03/01 14:26:29;;;;;;;7.10;6.40;;;;;;;;;;5012281;28;20034;-65
2024/03/01 14:28:55;;;;;;;7.20;5.95;;;;;;;;;;5012437;28;20383;-56
2024/03/01 14:31:21;;;;;;;9.85;7.18;;;;;;;;;;5011738;28;20034;-57
2024/03/01 14:34:00;;;;;;;8.85;7.32;;;;;;;;;;5012432;28;20377;-66
2024/03/01 14:36:29;;;;;;;7.90;6.18;;;;;;;;;;5007035;28;20428;-68
2024/03/01 14:38:55;;;;;;;8.15;6.32;;;;;;;;;;5001901;28;20421;-60
2024/03/01 14:41:23;;;;;;;6.93;6.22;;;;;;;;;;5005737;28;20030;-59
2024/03/01 14:43:49;;;;;;;6.45;5.80;;;;;;;;;;5012172;28;20038;-61
2024/03/01 14:46:28;;;;;;;6.90;5.75;;;;;;;;;;5011869;28;20093;-63
2024/03/01 14:48:59;;;;;;;7.32;6.15;;;;;;;;;;5007321;28;20038;-63
2024/03/01 14:51:28;;;;;;;9.25;6.03;;;;;;;;;;5011688;28;20080;-60
2024/03/01 14:53:54;;;;;;;6.25;5.65;;;;;;;;;;5010582;28;20061;-71
2024/03/01 14:56:21;;;;;;;7.60;6.50;;;;;;;;;;5011162;28;20033;-66
2024/03/01 14:58:50;;;;;;;8.15;6.00;;;;;;;;;;5010896;28;20538;-59
2024/03/01 15:01:16;;;;;;;8.65;7.30;;;;;;;;;;5011335;28;20041;-61
2024/03/01 15:03:42;;;;;;;6.93;5.28;;;;;;;;;;5010614;28;20057;-69
2024/03/01 15:06:09;;;;;;;6.05;5.38;;;;;;;;;;5011187;28;20030;-67
2024/03/01 15:08:36;;;;;;;9.07;6.30;;;;;;;;;;5010523;28;20426;-66
2024/03/01 15:11:05;;;;;;;9.88;6.75;;;;;;;;;;5010165;28;20081;-67
2024/03/01 15:13:31;;;;;;;8.60;6.20;;;;;;;;;;5011482;28;20057;-67